NDF12E LOWG-ELLX
Flight info
| Callsign | NDF12E |
|---|---|
| Flight time | 1h 19m |
| Altitude | 36000 |
| Route | ABIRI4G ABIRI DCT RENKA L610 UPALA Z744 LEPSA/N0406F240 Z104 AGBUL T894 BITBU/N0277F080 Z110 BETEX BETEX4K |
| Aircraft | A321/M-SDE3FGHIRWY/LB1 |
Departure
| Time | 2026-05-08 08:29 |
|---|---|
| Airport | Graz Airport (LOWG) |
Arrival
| Time | 2026-05-08 09:48 |
|---|---|
| Airport | Luxembourg-Findel International Airport (ELLX) |
| Time | Latitude | Longitude | Altitude | Speed | Heading |
|---|---|---|---|---|---|
| 2026-05-08 08:01 | 46.99535 | 15.44335 | 1113 ft | 0 kts | 126° |
| 2026-05-08 08:25 | 46.99534 | 15.44336 | 1112 ft | 1 kts | 126° |
| 2026-05-08 08:25 | 46.99522 | 15.44325 | 1103 ft | 6 kts | 230° |
| 2026-05-08 08:25 | 46.99558 | 15.44243 | 1113 ft | 14 kts | 342° |
| 2026-05-08 08:25 | 46.99645 | 15.44215 | 1113 ft | 12 kts | 349° |
| 2026-05-08 08:26 | 46.99738 | 15.44191 | 1110 ft | 16 kts | 349° |
| 2026-05-08 08:26 | 46.99845 | 15.44162 | 1113 ft | 16 kts | 349° |
| 2026-05-08 08:26 | 46.99981 | 15.44125 | 1116 ft | 21 kts | 349° |
| 2026-05-08 08:26 | 47.00116 | 15.44087 | 1115 ft | 19 kts | 349° |
| 2026-05-08 08:27 | 47.00241 | 15.44052 | 1119 ft | 19 kts | 349° |
| 2026-05-08 08:27 | 47.00340 | 15.43955 | 1118 ft | 17 kts | 304° |
| 2026-05-08 08:27 | 47.00409 | 15.43803 | 1121 ft | 20 kts | 303° |
| 2026-05-08 08:27 | 47.00410 | 15.43635 | 1124 ft | 16 kts | 219° |
| 2026-05-08 08:28 | 47.00286 | 15.43637 | 1122 ft | 29 kts | 169° |
| 2026-05-08 08:28 | 46.99835 | 15.43763 | 1108 ft | 99 kts | 169° |
| 2026-05-08 08:28 | 46.98973 | 15.44002 | 1102 ft | 151 kts | 169° |
| 2026-05-08 08:28 | 46.97888 | 15.44313 | 1461 ft | 162 kts | 167° |
| 2026-05-08 08:29 | 46.96781 | 15.44683 | 2056 ft | 164 kts | 168° |
| 2026-05-08 08:29 | 46.95659 | 15.44996 | 2690 ft | 164 kts | 168° |
| 2026-05-08 08:29 | 46.94489 | 15.44915 | 3063 ft | 182 kts | 201° |
| 2026-05-08 08:29 | 46.93358 | 15.43867 | 3284 ft | 203 kts | 214° |
| 2026-05-08 08:30 | 46.92156 | 15.42647 | 3628 ft | 213 kts | 212° |
| 2026-05-08 08:30 | 46.90922 | 15.41413 | 4116 ft | 216 kts | 213° |
| 2026-05-08 08:30 | 46.88451 | 15.38967 | 5315 ft | 217 kts | 213° |
| 2026-05-08 08:31 | 46.87295 | 15.37541 | 5824 ft | 220 kts | 230° |
| 2026-05-08 08:31 | 46.86512 | 15.35573 | 6131 ft | 234 kts | 248° |
| 2026-05-08 08:31 | 46.85904 | 15.33236 | 6319 ft | 259 kts | 249° |
| 2026-05-08 08:31 | 46.85245 | 15.30705 | 6863 ft | 271 kts | 249° |
| 2026-05-08 08:32 | 46.84564 | 15.28100 | 7634 ft | 276 kts | 249° |
| 2026-05-08 08:32 | 46.83871 | 15.25472 | 8459 ft | 279 kts | 249° |
| 2026-05-08 08:32 | 46.83171 | 15.22817 | 9284 ft | 282 kts | 249° |
| 2026-05-08 08:32 | 46.82462 | 15.20127 | 10089 ft | 285 kts | 249° |
| 2026-05-08 08:33 | 46.81746 | 15.17420 | 10562 ft | 300 kts | 249° |
| 2026-05-08 08:33 | 46.80964 | 15.14471 | 10746 ft | 323 kts | 249° |
| 2026-05-08 08:33 | 46.80120 | 15.11302 | 10894 ft | 346 kts | 249° |
| 2026-05-08 08:33 | 46.79225 | 15.07947 | 11215 ft | 361 kts | 249° |
| 2026-05-08 08:34 | 46.78339 | 15.04487 | 11792 ft | 367 kts | 253° |
| 2026-05-08 08:34 | 46.78058 | 15.00778 | 12400 ft | 373 kts | 274° |
| 2026-05-08 08:34 | 46.78724 | 14.97120 | 13055 ft | 377 kts | 295° |
| 2026-05-08 08:34 | 46.80279 | 14.94028 | 13744 ft | 383 kts | 316° |
| 2026-05-08 08:35 | 46.82509 | 14.91866 | 14346 ft | 388 kts | 330° |
| 2026-05-08 08:35 | 46.84871 | 14.90030 | 14917 ft | 392 kts | 330° |
| 2026-05-08 08:35 | 46.87295 | 14.88170 | 15497 ft | 395 kts | 330° |
| 2026-05-08 08:35 | 46.89741 | 14.86301 | 16108 ft | 398 kts | 330° |
| 2026-05-08 08:36 | 46.92201 | 14.84416 | 16707 ft | 401 kts | 330° |
| 2026-05-08 08:36 | 46.94673 | 14.82510 | 17294 ft | 403 kts | 330° |
| 2026-05-08 08:36 | 46.97161 | 14.80580 | 17883 ft | 406 kts | 329° |
| 2026-05-08 08:36 | 46.99669 | 14.78627 | 18454 ft | 409 kts | 329° |
| 2026-05-08 08:37 | 47.02186 | 14.76661 | 18948 ft | 412 kts | 329° |
| 2026-05-08 08:37 | 47.04716 | 14.74676 | 19459 ft | 413 kts | 329° |
| 2026-05-08 08:37 | 47.07259 | 14.72684 | 19946 ft | 416 kts | 329° |
| 2026-05-08 08:37 | 47.09817 | 14.70680 | 20415 ft | 418 kts | 329° |
| 2026-05-08 08:38 | 47.12394 | 14.68666 | 20924 ft | 420 kts | 329° |
| 2026-05-08 08:38 | 47.14947 | 14.66670 | 21425 ft | 422 kts | 329° |
| 2026-05-08 08:38 | 47.17547 | 14.64635 | 21906 ft | 424 kts | 329° |
| 2026-05-08 08:38 | 47.20157 | 14.62591 | 22390 ft | 427 kts | 328° |
| 2026-05-08 08:39 | 47.22778 | 14.60532 | 22876 ft | 428 kts | 329° |
| 2026-05-08 08:39 | 47.25414 | 14.58458 | 23366 ft | 431 kts | 329° |
| 2026-05-08 08:39 | 47.28064 | 14.56370 | 23788 ft | 433 kts | 328° |
| 2026-05-08 08:39 | 47.30725 | 14.54273 | 24178 ft | 435 kts | 328° |
| 2026-05-08 08:40 | 47.33402 | 14.52161 | 24570 ft | 437 kts | 328° |
| 2026-05-08 08:40 | 47.36089 | 14.50038 | 24961 ft | 439 kts | 328° |
| 2026-05-08 08:40 | 47.38786 | 14.47901 | 25340 ft | 441 kts | 328° |
| 2026-05-08 08:40 | 47.41493 | 14.45753 | 25714 ft | 443 kts | 327° |
| 2026-05-08 08:41 | 47.44176 | 14.43618 | 26023 ft | 445 kts | 327° |
| 2026-05-08 08:41 | 47.46910 | 14.41442 | 26356 ft | 447 kts | 327° |
| 2026-05-08 08:41 | 47.49654 | 14.39261 | 26709 ft | 448 kts | 327° |
| 2026-05-08 08:41 | 47.52406 | 14.37070 | 27063 ft | 450 kts | 327° |
| 2026-05-08 08:42 | 47.55167 | 14.34866 | 27422 ft | 452 kts | 327° |
| 2026-05-08 08:42 | 47.57940 | 14.32651 | 27786 ft | 454 kts | 327° |
| 2026-05-08 08:42 | 47.60714 | 14.30430 | 28266 ft | 452 kts | 327° |
| 2026-05-08 08:42 | 47.63477 | 14.28214 | 28718 ft | 451 kts | 327° |
| 2026-05-08 08:43 | 47.66195 | 14.26033 | 29181 ft | 450 kts | 326° |
| 2026-05-08 08:43 | 47.68945 | 14.23832 | 29663 ft | 448 kts | 326° |
| 2026-05-08 08:43 | 47.71684 | 14.21642 | 30134 ft | 447 kts | 326° |
| 2026-05-08 08:43 | 47.74415 | 14.19453 | 30546 ft | 445 kts | 326° |
| 2026-05-08 08:44 | 47.77135 | 14.17267 | 30884 ft | 444 kts | 326° |
| 2026-05-08 08:44 | 47.79848 | 14.15077 | 31222 ft | 444 kts | 326° |
| 2026-05-08 08:44 | 47.82566 | 14.12878 | 31579 ft | 444 kts | 326° |
| 2026-05-08 08:44 | 47.85276 | 14.10685 | 31958 ft | 443 kts | 326° |
| 2026-05-08 08:45 | 47.87986 | 14.08493 | 32310 ft | 442 kts | 326° |
| 2026-05-08 08:45 | 47.90690 | 14.06308 | 32676 ft | 443 kts | 326° |
| 2026-05-08 08:45 | 47.93358 | 14.04147 | 33036 ft | 442 kts | 326° |
| 2026-05-08 08:45 | 47.96060 | 14.01956 | 33418 ft | 442 kts | 326° |
| 2026-05-08 08:46 | 47.98756 | 13.99766 | 33803 ft | 441 kts | 326° |
| 2026-05-08 08:46 | 48.01450 | 13.97575 | 34167 ft | 440 kts | 326° |
| 2026-05-08 08:46 | 48.04137 | 13.95383 | 34465 ft | 440 kts | 326° |
| 2026-05-08 08:46 | 48.06830 | 13.93184 | 34739 ft | 441 kts | 326° |
| 2026-05-08 08:47 | 48.09521 | 13.90988 | 35007 ft | 441 kts | 326° |
| 2026-05-08 08:47 | 48.12214 | 13.88786 | 35272 ft | 442 kts | 326° |
| 2026-05-08 08:47 | 48.14914 | 13.86572 | 35527 ft | 442 kts | 326° |
| 2026-05-08 08:47 | 48.17614 | 13.84354 | 35777 ft | 443 kts | 326° |
| 2026-05-08 08:48 | 48.20285 | 13.82162 | 36009 ft | 444 kts | 326° |
| 2026-05-08 08:48 | 48.22998 | 13.79936 | 36098 ft | 445 kts | 327° |
| 2026-05-08 08:48 | 48.28429 | 13.75471 | 36101 ft | 445 kts | 327° |
| 2026-05-08 08:49 | 48.33858 | 13.70994 | 36103 ft | 445 kts | 327° |
| 2026-05-08 08:49 | 48.39284 | 13.66504 | 36104 ft | 445 kts | 327° |
| 2026-05-08 08:50 | 48.44711 | 13.61997 | 36103 ft | 445 kts | 327° |
| 2026-05-08 08:50 | 48.50100 | 13.57515 | 36127 ft | 445 kts | 327° |
| 2026-05-08 08:51 | 48.55328 | 13.52610 | 36123 ft | 439 kts | 315° |
| 2026-05-08 08:51 | 48.59253 | 13.45744 | 36116 ft | 429 kts | 297° |
| 2026-05-08 08:52 | 48.61612 | 13.37558 | 36104 ft | 424 kts | 287° |
| 2026-05-08 08:52 | 48.63617 | 13.29218 | 36106 ft | 425 kts | 287° |
| 2026-05-08 08:53 | 48.65631 | 13.20809 | 36104 ft | 426 kts | 287° |
| 2026-05-08 08:53 | 48.67638 | 13.12385 | 36121 ft | 426 kts | 287° |
| 2026-05-08 08:54 | 48.69648 | 13.03936 | 36116 ft | 427 kts | 287° |
| 2026-05-08 08:54 | 48.71633 | 12.95531 | 36116 ft | 427 kts | 287° |
| 2026-05-08 08:55 | 48.73621 | 12.87050 | 36114 ft | 427 kts | 287° |
| 2026-05-08 08:55 | 48.75603 | 12.78561 | 36118 ft | 427 kts | 287° |
| 2026-05-08 08:56 | 48.77586 | 12.70063 | 36120 ft | 428 kts | 287° |
| 2026-05-08 08:56 | 48.79554 | 12.61619 | 36126 ft | 428 kts | 287° |
| 2026-05-08 08:57 | 48.81525 | 12.53108 | 36128 ft | 428 kts | 286° |
| 2026-05-08 08:57 | 48.83482 | 12.44591 | 36131 ft | 428 kts | 286° |
| 2026-05-08 08:58 | 48.85436 | 12.36062 | 36128 ft | 428 kts | 286° |
| 2026-05-08 08:58 | 48.87369 | 12.27582 | 36150 ft | 428 kts | 286° |
| 2026-05-08 08:59 | 48.89589 | 12.19205 | 36144 ft | 430 kts | 294° |
| 2026-05-08 08:59 | 48.92307 | 12.11103 | 36142 ft | 430 kts | 294° |
| 2026-05-08 09:00 | 48.95004 | 12.02986 | 36139 ft | 430 kts | 294° |
| 2026-05-08 09:00 | 48.97698 | 11.94856 | 36136 ft | 430 kts | 294° |
| 2026-05-08 09:01 | 49.00373 | 11.86773 | 36137 ft | 430 kts | 294° |
| 2026-05-08 09:01 | 49.03062 | 11.78626 | 36131 ft | 430 kts | 294° |
| 2026-05-08 09:02 | 49.05745 | 11.70468 | 36126 ft | 431 kts | 294° |
| 2026-05-08 09:02 | 49.08417 | 11.62300 | 36127 ft | 431 kts | 293° |
| 2026-05-08 09:03 | 49.11085 | 11.54118 | 36134 ft | 431 kts | 293° |
| 2026-05-08 09:03 | 49.13731 | 11.45973 | 36127 ft | 431 kts | 293° |
| 2026-05-08 09:04 | 49.16397 | 11.37763 | 36126 ft | 432 kts | 293° |
| 2026-05-08 09:04 | 49.19057 | 11.29534 | 36125 ft | 432 kts | 293° |
| 2026-05-08 09:05 | 49.21701 | 11.21292 | 36139 ft | 431 kts | 292° |
| 2026-05-08 09:05 | 49.24091 | 11.12953 | 36154 ft | 430 kts | 289° |
| 2026-05-08 09:06 | 49.26318 | 11.04460 | 36154 ft | 430 kts | 289° |
| 2026-05-08 09:06 | 49.28563 | 10.95969 | 36157 ft | 430 kts | 290° |
| 2026-05-08 09:07 | 49.30851 | 10.87502 | 36157 ft | 430 kts | 290° |
| 2026-05-08 09:07 | 49.33125 | 10.79092 | 36151 ft | 430 kts | 290° |
| 2026-05-08 09:08 | 49.36151 | 10.71153 | 36155 ft | 435 kts | 303° |
| 2026-05-08 09:08 | 49.39710 | 10.63656 | 36153 ft | 435 kts | 303° |
| 2026-05-08 09:09 | 49.43252 | 10.56123 | 36139 ft | 435 kts | 302° |
| 2026-05-08 09:09 | 49.46783 | 10.48566 | 36141 ft | 435 kts | 302° |
| 2026-05-08 09:10 | 49.50287 | 10.41055 | 36142 ft | 435 kts | 302° |
| 2026-05-08 09:10 | 49.53814 | 10.33489 | 36159 ft | 435 kts | 302° |
| 2026-05-08 09:11 | 49.57344 | 10.25911 | 36150 ft | 435 kts | 302° |
| 2026-05-08 09:11 | 49.60868 | 10.18325 | 36150 ft | 435 kts | 302° |
| 2026-05-08 09:12 | 49.64359 | 10.10775 | 36146 ft | 435 kts | 302° |
| 2026-05-08 09:12 | 49.67871 | 10.03161 | 36143 ft | 435 kts | 302° |
| 2026-05-08 09:13 | 49.71347 | 9.95505 | 36147 ft | 434 kts | 298° |
| 2026-05-08 09:13 | 49.73994 | 9.87183 | 36145 ft | 432 kts | 292° |
| 2026-05-08 09:14 | 49.76482 | 9.78794 | 36138 ft | 432 kts | 292° |
| 2026-05-08 09:14 | 49.78976 | 9.70344 | 36145 ft | 432 kts | 292° |
| 2026-05-08 09:15 | 49.81472 | 9.61879 | 36144 ft | 432 kts | 292° |
| 2026-05-08 09:15 | 49.83276 | 9.53086 | 36150 ft | 428 kts | 282° |
| 2026-05-08 09:16 | 49.84718 | 9.44122 | 36142 ft | 429 kts | 282° |
| 2026-05-08 09:16 | 49.86150 | 9.35211 | 36137 ft | 429 kts | 282° |
| 2026-05-08 09:17 | 49.87844 | 9.26333 | 36137 ft | 430 kts | 286° |
| 2026-05-08 09:17 | 49.89762 | 9.17546 | 36135 ft | 431 kts | 287° |
| 2026-05-08 09:18 | 49.91655 | 9.08714 | 36134 ft | 430 kts | 283° |
| 2026-05-08 09:18 | 49.92351 | 8.99683 | 36139 ft | 426 kts | 267° |
| 2026-05-08 09:19 | 49.92266 | 8.90560 | 36131 ft | 426 kts | 267° |
| 2026-05-08 09:19 | 49.91370 | 8.81522 | 36130 ft | 424 kts | 257° |
| 2026-05-08 09:20 | 49.90120 | 8.72571 | 36130 ft | 425 kts | 257° |
| 2026-05-08 09:20 | 49.88864 | 8.63620 | 36127 ft | 425 kts | 257° |
| 2026-05-08 09:21 | 49.87607 | 8.54734 | 36120 ft | 425 kts | 257° |
| 2026-05-08 09:22 | 49.89732 | 8.27823 | 36124 ft | 429 kts | 281° |
| 2026-05-08 09:23 | 49.90404 | 8.23354 | 36129 ft | 429 kts | 281° |
| 2026-05-08 09:23 | 49.91750 | 8.14389 | 36135 ft | 430 kts | 281° |
| 2026-05-08 09:24 | 49.93112 | 8.05347 | 36139 ft | 430 kts | 281° |
| 2026-05-08 09:24 | 49.94453 | 7.96388 | 36143 ft | 431 kts | 281° |
| 2026-05-08 09:25 | 49.96002 | 7.87398 | 36130 ft | 431 kts | 284° |
| 2026-05-08 09:25 | 49.97748 | 7.78542 | 36135 ft | 431 kts | 285° |
| 2026-05-08 09:26 | 49.99516 | 7.69628 | 35926 ft | 433 kts | 285° |
| 2026-05-08 09:26 | 50.00430 | 7.65167 | 35668 ft | 432 kts | 285° |
| 2026-05-08 09:26 | 50.01355 | 7.60720 | 35425 ft | 432 kts | 285° |
| 2026-05-08 09:26 | 50.02283 | 7.56285 | 35186 ft | 432 kts | 285° |
| 2026-05-08 09:27 | 50.03212 | 7.51834 | 34938 ft | 432 kts | 285° |
| 2026-05-08 09:27 | 50.04132 | 7.47385 | 34689 ft | 432 kts | 285° |
| 2026-05-08 09:27 | 50.05043 | 7.42940 | 34455 ft | 432 kts | 285° |
| 2026-05-08 09:27 | 50.05935 | 7.38541 | 33859 ft | 434 kts | 285° |
| 2026-05-08 09:28 | 50.06840 | 7.34020 | 32895 ft | 439 kts | 285° |
| 2026-05-08 09:28 | 50.07640 | 7.29441 | 32022 ft | 439 kts | 279° |
| 2026-05-08 09:28 | 50.08016 | 7.24722 | 31082 ft | 441 kts | 272° |
| 2026-05-08 09:28 | 50.08212 | 7.19938 | 30112 ft | 445 kts | 272° |
| 2026-05-08 09:29 | 50.08410 | 7.15100 | 29021 ft | 448 kts | 272° |
| 2026-05-08 09:29 | 50.08609 | 7.10246 | 27944 ft | 451 kts | 272° |
| 2026-05-08 09:29 | 50.08813 | 7.05350 | 26836 ft | 455 kts | 272° |
| 2026-05-08 09:29 | 50.09018 | 7.00476 | 25656 ft | 460 kts | 272° |
| 2026-05-08 09:30 | 50.09224 | 6.95488 | 24467 ft | 464 kts | 272° |
| 2026-05-08 09:30 | 50.09427 | 6.90456 | 23405 ft | 465 kts | 272° |
| 2026-05-08 09:30 | 50.09467 | 6.85464 | 22597 ft | 457 kts | 266° |
| 2026-05-08 09:30 | 50.09052 | 6.80585 | 21686 ft | 453 kts | 257° |
| 2026-05-08 09:31 | 50.08144 | 6.75941 | 20809 ft | 448 kts | 248° |
| 2026-05-08 09:31 | 50.06747 | 6.71659 | 20036 ft | 442 kts | 238° |
| 2026-05-08 09:31 | 50.04907 | 6.67853 | 19315 ft | 437 kts | 230° |
| 2026-05-08 09:31 | 50.02933 | 6.64352 | 18519 ft | 434 kts | 229° |
| 2026-05-08 09:32 | 50.00950 | 6.60856 | 17649 ft | 430 kts | 229° |
| 2026-05-08 09:32 | 49.98901 | 6.57527 | 16941 ft | 423 kts | 222° |
| 2026-05-08 09:32 | 49.96559 | 6.54812 | 16193 ft | 419 kts | 212° |
| 2026-05-08 09:32 | 49.94003 | 6.52664 | 15474 ft | 415 kts | 208° |
| 2026-05-08 09:33 | 49.91465 | 6.50607 | 14791 ft | 409 kts | 208° |
| 2026-05-08 09:33 | 49.88963 | 6.48568 | 14123 ft | 404 kts | 209° |
| 2026-05-08 09:33 | 49.86562 | 6.46364 | 13438 ft | 397 kts | 219° |
| 2026-05-08 09:33 | 49.84712 | 6.43383 | 13019 ft | 377 kts | 235° |
| 2026-05-08 09:34 | 49.83540 | 6.39980 | 12647 ft | 343 kts | 251° |
| 2026-05-08 09:34 | 49.83038 | 6.36560 | 12410 ft | 312 kts | 264° |
| 2026-05-08 09:34 | 49.83062 | 6.33322 | 12052 ft | 293 kts | 277° |
| 2026-05-08 09:34 | 49.83492 | 6.30268 | 11798 ft | 289 kts | 282° |
| 2026-05-08 09:35 | 49.83961 | 6.27248 | 11545 ft | 288 kts | 282° |
| 2026-05-08 09:35 | 49.84424 | 6.24218 | 11304 ft | 288 kts | 282° |
| 2026-05-08 09:35 | 49.84880 | 6.21214 | 11057 ft | 286 kts | 282° |
| 2026-05-08 09:35 | 49.85298 | 6.18212 | 10807 ft | 284 kts | 275° |
| 2026-05-08 09:36 | 49.85186 | 6.15197 | 10564 ft | 281 kts | 255° |
| 2026-05-08 09:36 | 49.84429 | 6.12474 | 10320 ft | 280 kts | 236° |
| 2026-05-08 09:36 | 49.83116 | 6.10289 | 10076 ft | 280 kts | 217° |
| 2026-05-08 09:36 | 49.81492 | 6.08608 | 9981 ft | 279 kts | 220° |
| 2026-05-08 09:37 | 49.80288 | 6.06280 | 10004 ft | 280 kts | 240° |
| 2026-05-08 09:37 | 49.79376 | 6.03614 | 10005 ft | 280 kts | 243° |
| 2026-05-08 09:37 | 49.78628 | 6.00841 | 10003 ft | 280 kts | 257° |
| 2026-05-08 09:37 | 49.78571 | 5.97840 | 10004 ft | 282 kts | 280° |
| 2026-05-08 09:38 | 49.79305 | 5.95037 | 10017 ft | 285 kts | 303° |
| 2026-05-08 09:38 | 49.80719 | 5.92949 | 10001 ft | 288 kts | 328° |
| 2026-05-08 09:38 | 49.82612 | 5.91922 | 10007 ft | 293 kts | 352° |
| 2026-05-08 09:38 | 49.84636 | 5.92222 | 10003 ft | 297 kts | 18° |
| 2026-05-08 09:39 | 49.86406 | 5.93838 | 9932 ft | 299 kts | 44° |
| 2026-05-08 09:39 | 49.87556 | 5.96494 | 9797 ft | 298 kts | 70° |
| 2026-05-08 09:39 | 49.87865 | 5.99636 | 9668 ft | 296 kts | 96° |
| 2026-05-08 09:39 | 49.87510 | 6.02758 | 9536 ft | 295 kts | 103° |
| 2026-05-08 09:40 | 49.87093 | 6.05868 | 9400 ft | 294 kts | 103° |
| 2026-05-08 09:40 | 49.86679 | 6.08927 | 9267 ft | 294 kts | 103° |
| 2026-05-08 09:40 | 49.86258 | 6.12014 | 9143 ft | 292 kts | 105° |
| 2026-05-08 09:40 | 49.85578 | 6.14969 | 8997 ft | 290 kts | 115° |
| 2026-05-08 09:41 | 49.84764 | 6.17823 | 8642 ft | 290 kts | 115° |
| 2026-05-08 09:41 | 49.83950 | 6.20684 | 8217 ft | 289 kts | 115° |
| 2026-05-08 09:41 | 49.83137 | 6.23547 | 7777 ft | 289 kts | 115° |
| 2026-05-08 09:41 | 49.82342 | 6.26355 | 7388 ft | 282 kts | 114° |
| 2026-05-08 09:42 | 49.81560 | 6.29113 | 6726 ft | 277 kts | 114° |
| 2026-05-08 09:42 | 49.80791 | 6.31817 | 6052 ft | 269 kts | 114° |
| 2026-05-08 09:42 | 49.80081 | 6.34314 | 5886 ft | 246 kts | 114° |
| 2026-05-08 09:42 | 49.79407 | 6.36672 | 5750 ft | 236 kts | 116° |
| 2026-05-08 09:43 | 49.78483 | 6.38737 | 5632 ft | 233 kts | 134° |
| 2026-05-08 09:43 | 49.77205 | 6.40280 | 5222 ft | 237 kts | 149° |
| 2026-05-08 09:43 | 49.75760 | 6.41536 | 4590 ft | 238 kts | 150° |
| 2026-05-08 09:43 | 49.74243 | 6.42387 | 4239 ft | 230 kts | 169° |
| 2026-05-08 09:44 | 49.72641 | 6.42418 | 4113 ft | 230 kts | 188° |
| 2026-05-08 09:44 | 49.71153 | 6.41683 | 3932 ft | 222 kts | 205° |
| 2026-05-08 09:44 | 49.69931 | 6.40322 | 3714 ft | 211 kts | 224° |
| 2026-05-08 09:44 | 49.69099 | 6.38604 | 3482 ft | 193 kts | 239° |
| 2026-05-08 09:45 | 49.68455 | 6.36854 | 3228 ft | 179 kts | 239° |
| 2026-05-08 09:45 | 49.67856 | 6.35234 | 2981 ft | 175 kts | 239° |
| 2026-05-08 09:45 | 49.67261 | 6.33623 | 2766 ft | 169 kts | 239° |
| 2026-05-08 09:45 | 49.66706 | 6.32123 | 2530 ft | 156 kts | 239° |
| 2026-05-08 09:46 | 49.66178 | 6.30695 | 2311 ft | 152 kts | 238° |
| 2026-05-08 09:46 | 49.65660 | 6.29295 | 2112 ft | 150 kts | 239° |
| 2026-05-08 09:46 | 49.65148 | 6.27910 | 1900 ft | 147 kts | 240° |
| 2026-05-08 09:46 | 49.64642 | 6.26544 | 1707 ft | 146 kts | 239° |
| 2026-05-08 09:47 | 49.64139 | 6.25186 | 1503 ft | 146 kts | 239° |
| 2026-05-08 09:47 | 49.63639 | 6.23847 | 1307 ft | 146 kts | 239° |
| 2026-05-08 09:47 | 49.63153 | 6.22510 | 1215 ft | 134 kts | 239° |
| 2026-05-08 09:47 | 49.62781 | 6.21523 | 1223 ft | 78 kts | 240° |
| 2026-05-08 09:48 | 49.62641 | 6.21015 | 1235 ft | 36 kts | 269° |
| 2026-05-08 09:48 | 49.62649 | 6.20839 | 1235 ft | 3 kts | 277° |
| 2026-05-08 09:48 | 49.62649 | 6.20836 | 1236 ft | 0 kts | 277° |
| 2026-05-08 09:50 | 49.62669 | 6.20775 | 1244 ft | 14 kts | 309° |
| 2026-05-08 09:50 | 49.62766 | 6.20754 | 1244 ft | 14 kts | 17° |
| 2026-05-08 09:50 | 49.62833 | 6.20857 | 1237 ft | 15 kts | 63° |
| 2026-05-08 09:50 | 49.62888 | 6.21038 | 1233 ft | 17 kts | 65° |
| 2026-05-08 09:51 | 49.62937 | 6.21200 | 1233 ft | 17 kts | 64° |
| 2026-05-08 09:51 | 49.62990 | 6.21371 | 1229 ft | 19 kts | 65° |
| 2026-05-08 09:51 | 49.63048 | 6.21555 | 1226 ft | 19 kts | 64° |
| 2026-05-08 09:51 | 49.63103 | 6.21733 | 1225 ft | 13 kts | 65° |
| 2026-05-08 09:52 | 49.63166 | 6.21754 | 1228 ft | 12 kts | 330° |
| 2026-05-08 09:52 | 49.63244 | 6.21683 | 1230 ft | 9 kts | 331° |
| 2026-05-08 09:52 | 49.63292 | 6.21714 | 1230 ft | 7 kts | 38° |
| 2026-05-08 09:52 | 49.63338 | 6.21693 | 1230 ft | 7 kts | 334° |
| 2026-05-08 09:53 | 49.63347 | 6.21686 | 1230 ft | 0 kts | 333° |